Terminal Aerodrome Forecast
Issued by NWS

Home | Current Version | Previous Version | Text Only | Print | Product List | Glossary On
Versions: 1 2 3 4 5 6 7 8 9 10 11 12 13 14 15 16 17
000
FTUS45 KABQ 171700
TAFTCC
TAF
KTCC 171739Z 1718/1818 23012G20KT P6SM VCSH SCT030 BKN080
      TEMPO 1718/1722 6SM -RA BR SCT020 BKN050
     FM172200 23012G22KT P6SM VCTS BKN060CB
     FM180200 20010KT P6SM VCSH SCT030 BKN080
     FM180400 23006KT P6SM BKN050 BKN080
     FM181700 21007KT P6SM VCSH BKN050 BKN080=

USA.gov is the U.S. government's official web portal to all federal, state and local government web resources and services.